sensor_id;sensor_type;location;lat;lon;timestamp;temperature;humidity
18502;DHT22;68437;52.236;5.710;2023-05-10T00:00:46;12.80;99.90
18502;DHT22;68437;52.236;5.710;2023-05-10T00:03:13;12.80;99.90
18502;DHT22;68437;52.236;5.710;2023-05-10T00:05:40;12.90;99.90
18502;DHT22;68437;52.236;5.710;2023-05-10T00:08:07;12.90;99.90
18502;DHT22;68437;52.236;5.710;2023-05-10T00:10:35;12.90;99.90
18502;DHT22;68437;52.236;5.710;2023-05-10T00:13:03;12.90;99.90
18502;DHT22;68437;52.236;5.710;2023-05-10T00:15:30;13.00;99.90
18502;DHT22;68437;52.236;5.710;2023-05-10T00:17:56;12.90;99.90
18502;DHT22;68437;52.236;5.710;2023-05-10T00:20:23;12.90;99.90
18502;DHT22;68437;52.236;5.710;2023-05-10T00:22:50;13.00;99.90
18502;DHT22;68437;52.236;5.710;2023-05-10T00:25:17;12.90;99.90
18502;DHT22;68437;52.236;5.710;2023-05-10T00:27:47;12.90;99.90
18502;DHT22;68437;52.236;5.710;2023-05-10T00:30:16;12.90;99.90
18502;DHT22;68437;52.236;5.710;2023-05-10T00:32:43;12.90;99.90
18502;DHT22;68437;52.236;5.710;2023-05-10T00:35:10;12.90;99.90
18502;DHT22;68437;52.236;5.710;2023-05-10T00:37:39;13.00;99.90
18502;DHT22;68437;52.236;5.710;2023-05-10T00:40:07;13.00;99.90
18502;DHT22;68437;52.236;5.710;2023-05-10T00:42:34;13.00;99.90
18502;DHT22;68437;52.236;5.710;2023-05-10T00:45:02;13.00;99.90
18502;DHT22;68437;52.236;5.710;2023-05-10T00:47:29;13.00;99.90
18502;DHT22;68437;52.236;5.710;2023-05-10T00:49:56;13.00;99.90
18502;DHT22;68437;52.236;5.710;2023-05-10T00:52:23;13.00;99.90
18502;DHT22;68437;52.236;5.710;2023-05-10T00:54:52;13.00;99.90
18502;DHT22;68437;52.236;5.710;2023-05-10T00:57:19;13.00;99.90
18502;DHT22;68437;52.236;5.710;2023-05-10T00:59:46;13.00;99.90
18502;DHT22;68437;52.236;5.710;2023-05-10T01:02:14;13.00;99.90
18502;DHT22;68437;52.236;5.710;2023-05-10T01:04:41;13.00;99.90
18502;DHT22;68437;52.236;5.710;2023-05-10T01:07:07;13.00;99.90
18502;DHT22;68437;52.236;5.710;2023-05-10T01:09:34;12.90;99.90
18502;DHT22;68437;52.236;5.710;2023-05-10T01:12:02;13.00;99.90
18502;DHT22;68437;52.236;5.710;2023-05-10T01:14:32;13.00;99.90
18502;DHT22;68437;52.236;5.710;2023-05-10T01:17:00;13.00;99.90
18502;DHT22;68437;52.236;5.710;2023-05-10T01:19:30;12.90;99.90
18502;DHT22;68437;52.236;5.710;2023-05-10T01:22:08;13.00;99.90
18502;DHT22;68437;52.236;5.710;2023-05-10T01:25:01;13.00;99.90
18502;DHT22;68437;52.236;5.710;2023-05-10T01:27:52;13.00;99.90
18502;DHT22;68437;52.236;5.710;2023-05-10T01:33:35;12.90;99.90
18502;DHT22;68437;52.236;5.710;2023-05-10T01:36:12;12.90;99.90
18502;DHT22;68437;52.236;5.710;2023-05-10T01:38:44;12.90;99.90
18502;DHT22;68437;52.236;5.710;2023-05-10T01:41:18;13.00;99.90
18502;DHT22;68437;52.236;5.710;2023-05-10T01:43:55;12.90;99.90
18502;DHT22;68437;52.236;5.710;2023-05-10T01:46:27;13.00;99.90
18502;DHT22;68437;52.236;5.710;2023-05-10T01:48:58;13.00;99.90
18502;DHT22;68437;52.236;5.710;2023-05-10T01:51:31;12.90;99.90
18502;DHT22;68437;52.236;5.710;2023-05-10T01:54:03;12.90;99.90
18502;DHT22;68437;52.236;5.710;2023-05-10T01:56:33;12.90;99.90
18502;DHT22;68437;52.236;5.710;2023-05-10T01:59:05;12.90;99.90
18502;DHT22;68437;52.236;5.710;2023-05-10T02:01:33;12.90;99.90
18502;DHT22;68437;52.236;5.710;2023-05-10T02:04:03;12.90;99.90
18502;DHT22;68437;52.236;5.710;2023-05-10T02:06:31;12.90;99.90
18502;DHT22;68437;52.236;5.710;2023-05-10T02:09:00;12.90;99.90
18502;DHT22;68437;52.236;5.710;2023-05-10T02:11:28;12.90;99.90
18502;DHT22;68437;52.236;5.710;2023-05-10T02:13:56;12.90;99.90
18502;DHT22;68437;52.236;5.710;2023-05-10T02:16:26;12.90;99.90
18502;DHT22;68437;52.236;5.710;2023-05-10T02:18:57;12.80;99.90
18502;DHT22;68437;52.236;5.710;2023-05-10T02:21:26;12.90;99.90
18502;DHT22;68437;52.236;5.710;2023-05-10T02:23:54;12.90;99.90
18502;DHT22;68437;52.236;5.710;2023-05-10T02:26:23;12.90;99.90
18502;DHT22;68437;52.236;5.710;2023-05-10T02:28:51;12.90;99.90
18502;DHT22;68437;52.236;5.710;2023-05-10T02:31:20;12.80;99.90
18502;DHT22;68437;52.236;5.710;2023-05-10T02:33:48;12.90;99.90
18502;DHT22;68437;52.236;5.710;2023-05-10T02:36:15;12.90;99.90
18502;DHT22;68437;52.236;5.710;2023-05-10T02:38:44;12.80;99.90
18502;DHT22;68437;52.236;5.710;2023-05-10T02:41:13;12.90;99.90
18502;DHT22;68437;52.236;5.710;2023-05-10T02:43:40;12.90;99.90
18502;DHT22;68437;52.236;5.710;2023-05-10T02:46:08;12.90;99.90
18502;DHT22;68437;52.236;5.710;2023-05-10T02:48:35;12.90;99.90
18502;DHT22;68437;52.236;5.710;2023-05-10T02:51:05;12.90;99.90
18502;DHT22;68437;52.236;5.710;2023-05-10T02:53:35;12.90;99.90
18502;DHT22;68437;52.236;5.710;2023-05-10T02:56:11;12.80;99.90
18502;DHT22;68437;52.236;5.710;2023-05-10T02:58:41;12.80;99.90
18502;DHT22;68437;52.236;5.710;2023-05-10T03:01:08;12.80;99.90
18502;DHT22;68437;52.236;5.710;2023-05-10T03:03:35;12.80;99.90
18502;DHT22;68437;52.236;5.710;2023-05-10T03:06:02;12.80;99.90
18502;DHT22;68437;52.236;5.710;2023-05-10T03:08:29;12.80;99.90
18502;DHT22;68437;52.236;5.710;2023-05-10T03:11:12;12.80;99.90
18502;DHT22;68437;52.236;5.710;2023-05-10T03:13:48;12.80;99.90
18502;DHT22;68437;52.236;5.710;2023-05-10T03:16:22;12.80;99.90
18502;DHT22;68437;52.236;5.710;2023-05-10T03:18:56;12.80;99.90
18502;DHT22;68437;52.236;5.710;2023-05-10T03:21:29;12.80;99.90
18502;DHT22;68437;52.236;5.710;2023-05-10T03:24:05;12.80;99.90
18502;DHT22;68437;52.236;5.710;2023-05-10T03:26:35;12.80;99.90
18502;DHT22;68437;52.236;5.710;2023-05-10T03:29:04;12.80;99.90
18502;DHT22;68437;52.236;5.710;2023-05-10T03:31:31;12.80;99.90
18502;DHT22;68437;52.236;5.710;2023-05-10T03:33:58;12.80;99.90
18502;DHT22;68437;52.236;5.710;2023-05-10T03:36:25;12.80;99.90
18502;DHT22;68437;52.236;5.710;2023-05-10T03:38:52;12.80;99.90
18502;DHT22;68437;52.236;5.710;2023-05-10T03:41:19;12.80;99.90
18502;DHT22;68437;52.236;5.710;2023-05-10T03:43:47;12.80;99.90
18502;DHT22;68437;52.236;5.710;2023-05-10T03:46:14;12.80;99.90
18502;DHT22;68437;52.236;5.710;2023-05-10T03:48:40;12.80;99.90
18502;DHT22;68437;52.236;5.710;2023-05-10T03:51:07;12.80;99.90
18502;DHT22;68437;52.236;5.710;2023-05-10T03:53:34;12.80;99.90
18502;DHT22;68437;52.236;5.710;2023-05-10T03:56:01;12.80;99.90
18502;DHT22;68437;52.236;5.710;2023-05-10T03:58:28;12.80;99.90
18502;DHT22;68437;52.236;5.710;2023-05-10T04:00:56;12.80;99.90
18502;DHT22;68437;52.236;5.710;2023-05-10T04:03:23;12.70;99.90
18502;DHT22;68437;52.236;5.710;2023-05-10T04:05:59;12.70;99.90
18502;DHT22;68437;52.236;5.710;2023-05-10T04:08:26;12.60;99.90
18502;DHT22;68437;52.236;5.710;2023-05-10T04:10:53;12.60;99.90
18502;DHT22;68437;52.236;5.710;2023-05-10T04:13:19;12.60;99.90
18502;DHT22;68437;52.236;5.710;2023-05-10T04:15:46;12.60;99.90
18502;DHT22;68437;52.236;5.710;2023-05-10T04:18:15;12.60;99.90
18502;DHT22;68437;52.236;5.710;2023-05-10T04:20:42;12.60;99.90
18502;DHT22;68437;52.236;5.710;2023-05-10T04:23:09;12.60;99.90
18502;DHT22;68437;52.236;5.710;2023-05-10T04:25:36;12.60;99.90
18502;DHT22;68437;52.236;5.710;2023-05-10T04:28:03;12.50;99.90
18502;DHT22;68437;52.236;5.710;2023-05-10T04:30:30;12.50;99.90
18502;DHT22;68437;52.236;5.710;2023-05-10T04:32:59;12.50;99.90
18502;DHT22;68437;52.236;5.710;2023-05-10T04:35:30;12.50;99.90
18502;DHT22;68437;52.236;5.710;2023-05-10T04:37:57;12.50;99.90
18502;DHT22;68437;52.236;5.710;2023-05-10T04:40:24;12.50;99.90
18502;DHT22;68437;52.236;5.710;2023-05-10T04:42:51;12.50;99.90
18502;DHT22;68437;52.236;5.710;2023-05-10T04:45:18;12.50;99.90
18502;DHT22;68437;52.236;5.710;2023-05-10T04:47:47;12.40;99.90
18502;DHT22;68437;52.236;5.710;2023-05-10T04:50:14;12.40;99.90
18502;DHT22;68437;52.236;5.710;2023-05-10T04:52:42;12.40;99.90
18502;DHT22;68437;52.236;5.710;2023-05-10T04:55:09;12.50;99.90
18502;DHT22;68437;52.236;5.710;2023-05-10T04:57:36;12.50;99.90
18502;DHT22;68437;52.236;5.710;2023-05-10T05:00:03;12.50;99.90
18502;DHT22;68437;52.236;5.710;2023-05-10T05:02:30;12.40;99.90
18502;DHT22;68437;52.236;5.710;2023-05-10T05:04:59;12.50;99.90
18502;DHT22;68437;52.236;5.710;2023-05-10T05:07:26;12.40;99.90
18502;DHT22;68437;52.236;5.710;2023-05-10T05:09:54;12.50;99.90
18502;DHT22;68437;52.236;5.710;2023-05-10T05:12:21;12.50;99.90
18502;DHT22;68437;52.236;5.710;2023-05-10T05:14:47;12.60;99.90
18502;DHT22;68437;52.236;5.710;2023-05-10T05:17:14;12.50;99.90
18502;DHT22;68437;52.236;5.710;2023-05-10T05:19:41;12.60;99.90
18502;DHT22;68437;52.236;5.710;2023-05-10T05:22:08;12.50;99.90
18502;DHT22;68437;52.236;5.710;2023-05-10T05:24:35;12.50;99.90
18502;DHT22;68437;52.236;5.710;2023-05-10T05:27:05;12.50;99.90
18502;DHT22;68437;52.236;5.710;2023-05-10T05:29:32;12.40;99.90
18502;DHT22;68437;52.236;5.710;2023-05-10T05:31:59;12.50;99.90
18502;DHT22;68437;52.236;5.710;2023-05-10T05:34:26;12.50;99.90
18502;DHT22;68437;52.236;5.710;2023-05-10T05:36:55;12.50;99.90
18502;DHT22;68437;52.236;5.710;2023-05-10T05:39:24;12.50;99.90
18502;DHT22;68437;52.236;5.710;2023-05-10T05:41:51;12.50;99.90
18502;DHT22;68437;52.236;5.710;2023-05-10T05:44:19;12.50;99.90
18502;DHT22;68437;52.236;5.710;2023-05-10T05:46:46;12.50;99.90
18502;DHT22;68437;52.236;5.710;2023-05-10T05:49:13;12.50;99.90
18502;DHT22;68437;52.236;5.710;2023-05-10T05:51:40;12.50;99.90
18502;DHT22;68437;52.236;5.710;2023-05-10T05:54:07;12.50;99.90
18502;DHT22;68437;52.236;5.710;2023-05-10T05:56:33;12.50;99.90
18502;DHT22;68437;52.236;5.710;2023-05-10T05:59:00;12.50;99.90
18502;DHT22;68437;52.236;5.710;2023-05-10T06:01:28;12.50;99.90
18502;DHT22;68437;52.236;5.710;2023-05-10T06:03:55;12.50;99.90
18502;DHT22;68437;52.236;5.710;2023-05-10T06:06:22;12.50;99.90
18502;DHT22;68437;52.236;5.710;2023-05-10T06:08:49;12.50;99.90
18502;DHT22;68437;52.236;5.710;2023-05-10T06:11:15;12.60;99.90
18502;DHT22;68437;52.236;5.710;2023-05-10T06:13:42;12.50;99.90
18502;DHT22;68437;52.236;5.710;2023-05-10T06:16:10;12.50;99.90
18502;DHT22;68437;52.236;5.710;2023-05-10T06:18:38;12.60;99.90
18502;DHT22;68437;52.236;5.710;2023-05-10T06:21:05;12.60;99.90
18502;DHT22;68437;52.236;5.710;2023-05-10T06:23:31;12.60;99.90
18502;DHT22;68437;52.236;5.710;2023-05-10T06:25:58;12.60;99.90
18502;DHT22;68437;52.236;5.710;2023-05-10T06:28:25;12.60;99.90
18502;DHT22;68437;52.236;5.710;2023-05-10T06:30:52;12.60;99.90
18502;DHT22;68437;52.236;5.710;2023-05-10T06:33:19;12.50;99.90
18502;DHT22;68437;52.236;5.710;2023-05-10T06:35:47;12.50;99.90
18502;DHT22;68437;52.236;5.710;2023-05-10T06:38:14;12.40;99.90
18502;DHT22;68437;52.236;5.710;2023-05-10T06:40:41;12.40;99.90
18502;DHT22;68437;52.236;5.710;2023-05-10T06:43:08;12.50;99.90
18502;DHT22;68437;52.236;5.710;2023-05-10T06:45:35;12.40;99.90
18502;DHT22;68437;52.236;5.710;2023-05-10T06:48:02;12.30;99.90
18502;DHT22;68437;52.236;5.710;2023-05-10T06:50:29;12.40;99.90
18502;DHT22;68437;52.236;5.710;2023-05-10T06:52:57;12.40;99.90
18502;DHT22;68437;52.236;5.710;2023-05-10T06:55:24;12.50;99.90
18502;DHT22;68437;52.236;5.710;2023-05-10T06:57:51;12.50;99.90
18502;DHT22;68437;52.236;5.710;2023-05-10T07:00:19;12.50;99.90
18502;DHT22;68437;52.236;5.710;2023-05-10T07:02:46;12.50;99.90
18502;DHT22;68437;52.236;5.710;2023-05-10T07:05:13;12.60;99.90
18502;DHT22;68437;52.236;5.710;2023-05-10T07:07:40;12.60;99.90
18502;DHT22;68437;52.236;5.710;2023-05-10T07:10:09;12.60;99.90
18502;DHT22;68437;52.236;5.710;2023-05-10T07:12:36;12.60;99.90
18502;DHT22;68437;52.236;5.710;2023-05-10T07:15:04;12.60;99.90
18502;DHT22;68437;52.236;5.710;2023-05-10T07:17:31;12.60;99.90
18502;DHT22;68437;52.236;5.710;2023-05-10T07:19:59;12.50;99.90
18502;DHT22;68437;52.236;5.710;2023-05-10T07:22:26;12.70;99.90
18502;DHT22;68437;52.236;5.710;2023-05-10T07:24:52;12.80;99.90
18502;DHT22;68437;52.236;5.710;2023-05-10T07:27:21;12.90;99.90
18502;DHT22;68437;52.236;5.710;2023-05-10T07:29:47;13.00;99.90
18502;DHT22;68437;52.236;5.710;2023-05-10T07:32:14;13.00;99.90
18502;DHT22;68437;52.236;5.710;2023-05-10T07:34:41;13.10;99.90
18502;DHT22;68437;52.236;5.710;2023-05-10T07:37:08;13.00;99.90
18502;DHT22;68437;52.236;5.710;2023-05-10T07:39:35;12.90;99.90
18502;DHT22;68437;52.236;5.710;2023-05-10T07:42:03;12.90;99.90
18502;DHT22;68437;52.236;5.710;2023-05-10T07:44:31;12.90;99.90
18502;DHT22;68437;52.236;5.710;2023-05-10T07:46:57;13.00;99.90
18502;DHT22;68437;52.236;5.710;2023-05-10T07:49:25;13.00;99.90
18502;DHT22;68437;52.236;5.710;2023-05-10T07:51:52;13.00;99.90
18502;DHT22;68437;52.236;5.710;2023-05-10T07:54:19;12.90;99.90
18502;DHT22;68437;52.236;5.710;2023-05-10T07:56:47;12.90;99.90
18502;DHT22;68437;52.236;5.710;2023-05-10T07:59:16;13.00;99.90
18502;DHT22;68437;52.236;5.710;2023-05-10T08:01:44;13.00;99.90
18502;DHT22;68437;52.236;5.710;2023-05-10T08:04:11;13.00;99.90
18502;DHT22;68437;52.236;5.710;2023-05-10T08:06:38;13.00;99.90
18502;DHT22;68437;52.236;5.710;2023-05-10T08:09:05;13.00;99.90
18502;DHT22;68437;52.236;5.710;2023-05-10T08:11:32;13.00;99.90
18502;DHT22;68437;52.236;5.710;2023-05-10T08:13:59;13.00;99.90
18502;DHT22;68437;52.236;5.710;2023-05-10T08:16:26;13.00;99.90
18502;DHT22;68437;52.236;5.710;2023-05-10T08:18:54;13.00;99.90
18502;DHT22;68437;52.236;5.710;2023-05-10T08:21:21;13.00;99.90
18502;DHT22;68437;52.236;5.710;2023-05-10T08:23:48;13.10;99.90
18502;DHT22;68437;52.236;5.710;2023-05-10T08:26:15;13.10;99.90
18502;DHT22;68437;52.236;5.710;2023-05-10T08:28:42;13.20;99.90
18502;DHT22;68437;52.236;5.710;2023-05-10T08:31:09;13.30;99.90
18502;DHT22;68437;52.236;5.710;2023-05-10T08:33:35;13.40;99.90
18502;DHT22;68437;52.236;5.710;2023-05-10T08:36:04;13.50;99.90
18502;DHT22;68437;52.236;5.710;2023-05-10T08:38:31;13.50;99.90
18502;DHT22;68437;52.236;5.710;2023-05-10T08:40:58;13.60;99.90
18502;DHT22;68437;52.236;5.710;2023-05-10T08:43:27;13.50;99.90
18502;DHT22;68437;52.236;5.710;2023-05-10T08:45:55;13.50;99.90
18502;DHT22;68437;52.236;5.710;2023-05-10T08:48:24;13.40;99.90
18502;DHT22;68437;52.236;5.710;2023-05-10T08:50:53;13.40;99.90
18502;DHT22;68437;52.236;5.710;2023-05-10T08:53:24;13.50;99.90
18502;DHT22;68437;52.236;5.710;2023-05-10T08:55:53;13.50;99.90
18502;DHT22;68437;52.236;5.710;2023-05-10T08:58:20;13.40;99.90
18502;DHT22;68437;52.236;5.710;2023-05-10T09:00:51;13.40;99.90
18502;DHT22;68437;52.236;5.710;2023-05-10T09:03:21;13.40;99.90
18502;DHT22;68437;52.236;5.710;2023-05-10T09:05:48;13.30;99.90
18502;DHT22;68437;52.236;5.710;2023-05-10T09:08:15;13.40;99.90
18502;DHT22;68437;52.236;5.710;2023-05-10T09:10:44;13.50;99.90
18502;DHT22;68437;52.236;5.710;2023-05-10T09:13:14;13.50;99.90
18502;DHT22;68437;52.236;5.710;2023-05-10T09:15:41;13.70;99.90
18502;DHT22;68437;52.236;5.710;2023-05-10T09:18:08;13.80;99.90
18502;DHT22;68437;52.236;5.710;2023-05-10T09:20:35;14.10;99.90
18502;DHT22;68437;52.236;5.710;2023-05-10T09:23:02;14.20;99.90
18502;DHT22;68437;52.236;5.710;2023-05-10T09:25:29;14.10;99.90
18502;DHT22;68437;52.236;5.710;2023-05-10T09:27:57;14.10;99.90
18502;DHT22;68437;52.236;5.710;2023-05-10T09:30:25;14.10;99.90
18502;DHT22;68437;52.236;5.710;2023-05-10T09:32:52;14.00;99.90
18502;DHT22;68437;52.236;5.710;2023-05-10T09:35:21;13.90;99.90
18502;DHT22;68437;52.236;5.710;2023-05-10T09:37:49;13.90;99.90
18502;DHT22;68437;52.236;5.710;2023-05-10T09:40:18;14.00;99.90
18502;DHT22;68437;52.236;5.710;2023-05-10T09:42:52;13.80;99.90
18502;DHT22;68437;52.236;5.710;2023-05-10T09:45:21;13.80;99.90
18502;DHT22;68437;52.236;5.710;2023-05-10T09:47:52;13.90;99.90
18502;DHT22;68437;52.236;5.710;2023-05-10T09:50:22;13.90;99.90
18502;DHT22;68437;52.236;5.710;2023-05-10T09:52:50;13.80;99.90
18502;DHT22;68437;52.236;5.710;2023-05-10T09:55:18;14.10;99.90
18502;DHT22;68437;52.236;5.710;2023-05-10T09:57:46;14.20;99.90
18502;DHT22;68437;52.236;5.710;2023-05-10T10:00:17;14.30;99.90
18502;DHT22;68437;52.236;5.710;2023-05-10T10:02:54;14.40;99.90
18502;DHT22;68437;52.236;5.710;2023-05-10T10:05:28;14.50;99.90
18502;DHT22;68437;52.236;5.710;2023-05-10T10:07:56;14.50;99.90
18502;DHT22;68437;52.236;5.710;2023-05-10T10:10:23;14.60;99.90
18502;DHT22;68437;52.236;5.710;2023-05-10T10:12:50;14.60;99.90
18502;DHT22;68437;52.236;5.710;2023-05-10T10:15:18;14.60;99.90
18502;DHT22;68437;52.236;5.710;2023-05-10T10:17:45;14.60;99.90
18502;DHT22;68437;52.236;5.710;2023-05-10T10:20:14;14.50;99.90
18502;DHT22;68437;52.236;5.710;2023-05-10T10:22:41;14.50;99.90
18502;DHT22;68437;52.236;5.710;2023-05-10T10:25:11;14.60;99.90
18502;DHT22;68437;52.236;5.710;2023-05-10T10:27:45;14.70;99.90
18502;DHT22;68437;52.236;5.710;2023-05-10T10:30:23;14.90;99.90
18502;DHT22;68437;52.236;5.710;2023-05-10T10:33:18;15.10;99.90
18502;DHT22;68437;52.236;5.710;2023-05-10T10:35:52;15.20;99.90
18502;DHT22;68437;52.236;5.710;2023-05-10T10:38:20;15.40;99.90
18502;DHT22;68437;52.236;5.710;2023-05-10T10:40:48;15.60;99.90
18502;DHT22;68437;52.236;5.710;2023-05-10T10:43:22;15.70;99.90
18502;DHT22;68437;52.236;5.710;2023-05-10T10:46:11;15.70;99.90
18502;DHT22;68437;52.236;5.710;2023-05-10T10:48:39;15.70;99.90
18502;DHT22;68437;52.236;5.710;2023-05-10T10:51:07;15.70;99.90
18502;DHT22;68437;52.236;5.710;2023-05-10T10:53:34;15.80;99.90
18502;DHT22;68437;52.236;5.710;2023-05-10T10:56:07;15.90;99.90
18502;DHT22;68437;52.236;5.710;2023-05-10T10:58:35;15.70;99.90
18502;DHT22;68437;52.236;5.710;2023-05-10T11:01:13;15.70;99.90
18502;DHT22;68437;52.236;5.710;2023-05-10T11:03:41;15.70;99.90
18502;DHT22;68437;52.236;5.710;2023-05-10T11:06:09;15.80;99.90
18502;DHT22;68437;52.236;5.710;2023-05-10T11:08:42;16.00;99.90
18502;DHT22;68437;52.236;5.710;2023-05-10T11:11:10;16.10;99.90
18502;DHT22;68437;52.236;5.710;2023-05-10T11:13:41;16.10;99.90
18502;DHT22;68437;52.236;5.710;2023-05-10T11:16:14;16.00;99.90
18502;DHT22;68437;52.236;5.710;2023-05-10T11:19:01;16.00;99.90
18502;DHT22;68437;52.236;5.710;2023-05-10T11:21:30;16.00;99.90
18502;DHT22;68437;52.236;5.710;2023-05-10T11:23:58;15.90;99.90
18502;DHT22;68437;52.236;5.710;2023-05-10T11:26:30;15.90;99.90
18502;DHT22;68437;52.236;5.710;2023-05-10T11:28:57;16.00;99.90
18502;DHT22;68437;52.236;5.710;2023-05-10T11:31:26;15.90;99.90
18502;DHT22;68437;52.236;5.710;2023-05-10T11:33:54;15.90;99.90
18502;DHT22;68437;52.236;5.710;2023-05-10T11:36:22;15.80;99.90
18502;DHT22;68437;52.236;5.710;2023-05-10T11:38:51;15.80;99.90
18502;DHT22;68437;52.236;5.710;2023-05-10T11:41:19;15.90;99.90
18502;DHT22;68437;52.236;5.710;2023-05-10T11:43:49;16.00;99.90
18502;DHT22;68437;52.236;5.710;2023-05-10T11:46:18;16.10;99.90
18502;DHT22;68437;52.236;5.710;2023-05-10T11:48:47;16.20;99.90
18502;DHT22;68437;52.236;5.710;2023-05-10T11:51:15;16.30;99.90
18502;DHT22;68437;52.236;5.710;2023-05-10T11:53:42;16.40;99.90
18502;DHT22;68437;52.236;5.710;2023-05-10T11:56:10;16.60;99.90
18502;DHT22;68437;52.236;5.710;2023-05-10T11:58:38;16.70;99.90
18502;DHT22;68437;52.236;5.710;2023-05-10T12:01:07;16.80;99.90
18502;DHT22;68437;52.236;5.710;2023-05-10T12:03:34;16.70;99.90
18502;DHT22;68437;52.236;5.710;2023-05-10T12:06:05;16.60;99.90
18502;DHT22;68437;52.236;5.710;2023-05-10T12:08:33;16.70;99.90
18502;DHT22;68437;52.236;5.710;2023-05-10T12:11:07;16.70;99.90
18502;DHT22;68437;52.236;5.710;2023-05-10T12:13:39;16.50;99.90
18502;DHT22;68437;52.236;5.710;2023-05-10T12:16:13;16.50;99.90
18502;DHT22;68437;52.236;5.710;2023-05-10T12:18:40;16.40;99.90
18502;DHT22;68437;52.236;5.710;2023-05-10T12:21:10;16.60;99.90
18502;DHT22;68437;52.236;5.710;2023-05-10T12:23:37;16.90;99.90
18502;DHT22;68437;52.236;5.710;2023-05-10T12:26:04;16.90;99.90
18502;DHT22;68437;52.236;5.710;2023-05-10T12:28:32;17.00;99.90
18502;DHT22;68437;52.236;5.710;2023-05-10T12:31:01;17.00;99.90
18502;DHT22;68437;52.236;5.710;2023-05-10T12:33:35;17.10;99.90
18502;DHT22;68437;52.236;5.710;2023-05-10T12:36:02;17.10;99.90
18502;DHT22;68437;52.236;5.710;2023-05-10T12:38:32;17.20;99.90
18502;DHT22;68437;52.236;5.710;2023-05-10T12:41:01;17.00;99.90
18502;DHT22;68437;52.236;5.710;2023-05-10T12:43:28;17.00;99.90
18502;DHT22;68437;52.236;5.710;2023-05-10T12:45:55;16.90;99.90
18502;DHT22;68437;52.236;5.710;2023-05-10T12:48:24;16.90;99.90
18502;DHT22;68437;52.236;5.710;2023-05-10T12:50:51;17.10;99.90
18502;DHT22;68437;52.236;5.710;2023-05-10T12:53:18;17.10;99.90
18502;DHT22;68437;52.236;5.710;2023-05-10T12:55:45;17.20;99.90
18502;DHT22;68437;52.236;5.710;2023-05-10T12:58:12;17.20;99.90
18502;DHT22;68437;52.236;5.710;2023-05-10T13:00:39;17.10;99.90
18502;DHT22;68437;52.236;5.710;2023-05-10T13:03:06;17.10;99.90
18502;DHT22;68437;52.236;5.710;2023-05-10T13:05:34;17.20;99.90
18502;DHT22;68437;52.236;5.710;2023-05-10T13:08:01;17.30;99.90
18502;DHT22;68437;52.236;5.710;2023-05-10T13:10:29;17.20;99.90
18502;DHT22;68437;52.236;5.710;2023-05-10T13:12:57;17.20;99.90
18502;DHT22;68437;52.236;5.710;2023-05-10T13:15:24;17.10;99.90
18502;DHT22;68437;52.236;5.710;2023-05-10T13:17:51;17.10;99.90
18502;DHT22;68437;52.236;5.710;2023-05-10T13:20:18;17.00;99.90
18502;DHT22;68437;52.236;5.710;2023-05-10T13:22:46;17.00;99.90
18502;DHT22;68437;52.236;5.710;2023-05-10T13:25:13;17.00;99.90
18502;DHT22;68437;52.236;5.710;2023-05-10T13:27:40;17.00;99.90
18502;DHT22;68437;52.236;5.710;2023-05-10T13:30:08;17.10;99.90
18502;DHT22;68437;52.236;5.710;2023-05-10T13:32:35;17.20;99.90
18502;DHT22;68437;52.236;5.710;2023-05-10T13:35:02;17.30;99.90
18502;DHT22;68437;52.236;5.710;2023-05-10T13:37:30;17.50;99.90
18502;DHT22;68437;52.236;5.710;2023-05-10T13:39:58;17.50;99.90
18502;DHT22;68437;52.236;5.710;2023-05-10T13:42:25;17.50;99.90
18502;DHT22;68437;52.236;5.710;2023-05-10T13:44:52;17.60;99.90
18502;DHT22;68437;52.236;5.710;2023-05-10T13:47:19;17.60;99.90
18502;DHT22;68437;52.236;5.710;2023-05-10T13:49:47;17.70;99.90
18502;DHT22;68437;52.236;5.710;2023-05-10T13:52:13;17.90;99.90
18502;DHT22;68437;52.236;5.710;2023-05-10T13:54:40;18.00;99.90
18502;DHT22;68437;52.236;5.710;2023-05-10T13:57:08;18.00;99.90
18502;DHT22;68437;52.236;5.710;2023-05-10T13:59:38;18.20;99.90
18502;DHT22;68437;52.236;5.710;2023-05-10T14:02:05;18.40;99.90
18502;DHT22;68437;52.236;5.710;2023-05-10T14:04:32;18.20;99.90
18502;DHT22;68437;52.236;5.710;2023-05-10T14:07:00;17.80;99.90
18502;DHT22;68437;52.236;5.710;2023-05-10T14:09:27;17.70;99.90
18502;DHT22;68437;52.236;5.710;2023-05-10T14:11:54;17.70;99.90
18502;DHT22;68437;52.236;5.710;2023-05-10T14:14:22;17.50;99.90
18502;DHT22;68437;52.236;5.710;2023-05-10T14:16:49;17.30;99.90
18502;DHT22;68437;52.236;5.710;2023-05-10T14:19:16;17.30;99.90
18502;DHT22;68437;52.236;5.710;2023-05-10T14:21:45;17.10;99.90
18502;DHT22;68437;52.236;5.710;2023-05-10T14:24:12;17.00;99.90
18502;DHT22;68437;52.236;5.710;2023-05-10T14:26:39;16.90;99.90
18502;DHT22;68437;52.236;5.710;2023-05-10T14:29:05;16.90;99.90
18502;DHT22;68437;52.236;5.710;2023-05-10T14:31:34;16.90;99.90
18502;DHT22;68437;52.236;5.710;2023-05-10T14:34:01;17.00;99.90
18502;DHT22;68437;52.236;5.710;2023-05-10T14:36:28;16.90;99.90
18502;DHT22;68437;52.236;5.710;2023-05-10T14:38:55;16.80;99.90
18502;DHT22;68437;52.236;5.710;2023-05-10T14:41:22;16.60;99.90
18502;DHT22;68437;52.236;5.710;2023-05-10T14:43:50;16.50;99.90
18502;DHT22;68437;52.236;5.710;2023-05-10T14:46:18;16.40;99.90
18502;DHT22;68437;52.236;5.710;2023-05-10T14:48:46;16.20;99.90
18502;DHT22;68437;52.236;5.710;2023-05-10T14:51:13;16.10;99.90
18502;DHT22;68437;52.236;5.710;2023-05-10T14:53:40;16.10;99.90
18502;DHT22;68437;52.236;5.710;2023-05-10T14:56:07;16.10;99.90
18502;DHT22;68437;52.236;5.710;2023-05-10T14:58:33;16.10;99.90
18502;DHT22;68437;52.236;5.710;2023-05-10T15:01:00;16.00;99.90
18502;DHT22;68437;52.236;5.710;2023-05-10T15:03:27;16.00;99.90
18502;DHT22;68437;52.236;5.710;2023-05-10T15:05:55;15.80;99.90
18502;DHT22;68437;52.236;5.710;2023-05-10T15:08:23;15.70;99.90
18502;DHT22;68437;52.236;5.710;2023-05-10T15:10:50;15.70;99.90
18502;DHT22;68437;52.236;5.710;2023-05-10T15:13:17;15.70;99.90
18502;DHT22;68437;52.236;5.710;2023-05-10T15:15:44;15.60;99.90
18502;DHT22;68437;52.236;5.710;2023-05-10T15:18:11;15.60;99.90
18502;DHT22;68437;52.236;5.710;2023-05-10T15:20:38;15.50;99.90
18502;DHT22;68437;52.236;5.710;2023-05-10T15:23:06;15.50;99.90
18502;DHT22;68437;52.236;5.710;2023-05-10T15:25:33;15.50;99.90
18502;DHT22;68437;52.236;5.710;2023-05-10T15:28:02;15.60;99.90
18502;DHT22;68437;52.236;5.710;2023-05-10T15:30:29;15.50;99.90
18502;DHT22;68437;52.236;5.710;2023-05-10T15:32:56;15.60;99.90
18502;DHT22;68437;52.236;5.710;2023-05-10T15:35:23;15.60;99.90
18502;DHT22;68437;52.236;5.710;2023-05-10T15:37:49;15.80;99.90
18502;DHT22;68437;52.236;5.710;2023-05-10T15:40:18;15.70;99.90